메인 페이지
METAR-TAF:

METAR-TAF

공항 :

캔자스시티, 미주리, 미국

위도: 39-17-50N, 경도: 094-43-50W, 고도: 312m

현재 날씨관측

예보는 15분 전, 12:53시(UTC)에 발표되었습니다.
남남서10kt
온도 17°C
습도 94%
기압 1008 hPa
시정: 11.3km
고도 1200ft 상공 구름 많음

METAR: KMCI 071253Z 20010KT 7SM BKN012 17/16 A2977 RMK AO2 SLP075 T01720156

시각: 08:08 (13:08 UTC)

예보

예보는 1 시간 29분 전, 11:39시(UTC)에 발표되었습니다.
예보 대상 시간: 07일 12시부터 08일 12시까지 (UTC)
남남서12kt
시정: 10km
고도 1500ft 상공 흐림
일시적
07일 12시부터 07일 15시까지 (UTC)
고도 1500ft 상공 구름 보통
07일 1800시부터 (UTC)
남서9kt
시정: 10km
고도 3500ft 상공 구름 보통
07일 2100시부터 (UTC)
서남서9kt
시정: 10km
고도 6000ft 상공 구름 보통
08일 0000시부터 (UTC)
6kt
시정: 10km
고도 25000ft 상공 구름 보통

TAF: KMCI 071139Z 0712/0812 21012KT P6SM OVC015 TEMPO 0712/0715 SCT015 FM071800 22009KT P6SM SCT035 FM072100 25009KT P6SM SCT060 FM080000 28006KT P6SM SCT250

4,000개 이상의 공항 관측 자료 및 예보 (METAR 및 TAF 보고).

지도상에서 검색 가능한 기상관측소가 노란 점과 빨간 점으로 표시되어 있습니다.

기상관측소 명을 보려면 표시 위로 마우스를 이동하세요.

날씨 관측과 예보를 보려면 클릭하세요.

지도 변경 : 확대하려면 엑스 표시가 있는 녹색 버튼, 축소하려면 빼기 표시가 있는 녹색 버튼, 다음 페이지의 지도를 보려면 녹색 화살표를 클릭하세요.


METAR-TAF: